sensor_id;sensor_type;location;lat;lon;timestamp;temperature;humidity
5796;DHT22;2924;51.458;7.046;2023-04-09T00:00:36;6.00;99.90
5796;DHT22;2924;51.458;7.046;2023-04-09T00:03:01;6.00;99.90
5796;DHT22;2924;51.458;7.046;2023-04-09T00:05:27;5.90;99.90
5796;DHT22;2924;51.458;7.046;2023-04-09T00:07:53;5.90;99.90
5796;DHT22;2924;51.458;7.046;2023-04-09T00:10:19;5.90;99.90
5796;DHT22;2924;51.458;7.046;2023-04-09T00:12:44;5.90;99.90
5796;DHT22;2924;51.458;7.046;2023-04-09T00:15:10;5.90;99.90
5796;DHT22;2924;51.458;7.046;2023-04-09T00:17:36;5.90;99.90
5796;DHT22;2924;51.458;7.046;2023-04-09T00:20:01;5.90;99.90
5796;DHT22;2924;51.458;7.046;2023-04-09T00:22:27;5.80;99.90
5796;DHT22;2924;51.458;7.046;2023-04-09T00:24:52;5.80;99.90
5796;DHT22;2924;51.458;7.046;2023-04-09T00:27:18;5.70;99.90
5796;DHT22;2924;51.458;7.046;2023-04-09T00:29:44;5.70;99.90
5796;DHT22;2924;51.458;7.046;2023-04-09T00:32:09;5.60;99.90
5796;DHT22;2924;51.458;7.046;2023-04-09T00:34:35;5.60;99.90
5796;DHT22;2924;51.458;7.046;2023-04-09T00:37:01;5.60;99.90
5796;DHT22;2924;51.458;7.046;2023-04-09T00:39:26;5.50;99.90
5796;DHT22;2924;51.458;7.046;2023-04-09T00:41:56;5.40;99.90
5796;DHT22;2924;51.458;7.046;2023-04-09T00:44:23;5.40;99.90
5796;DHT22;2924;51.458;7.046;2023-04-09T00:46:49;5.30;99.90
5796;DHT22;2924;51.458;7.046;2023-04-09T00:49:15;5.30;99.90
5796;DHT22;2924;51.458;7.046;2023-04-09T00:51:41;5.20;99.90
5796;DHT22;2924;51.458;7.046;2023-04-09T00:54:08;5.20;99.90
5796;DHT22;2924;51.458;7.046;2023-04-09T00:56:35;5.20;99.90
5796;DHT22;2924;51.458;7.046;2023-04-09T00:59:01;5.10;99.90
5796;DHT22;2924;51.458;7.046;2023-04-09T01:01:27;5.20;99.90
5796;DHT22;2924;51.458;7.046;2023-04-09T01:03:52;5.20;99.90
5796;DHT22;2924;51.458;7.046;2023-04-09T01:06:31;5.10;99.90
5796;DHT22;2924;51.458;7.046;2023-04-09T01:11:37;5.00;99.90
5796;DHT22;2924;51.458;7.046;2023-04-09T01:14:18;5.00;99.90
5796;DHT22;2924;51.458;7.046;2023-04-09T01:16:59;5.00;99.90
5796;DHT22;2924;51.458;7.046;2023-04-09T01:19:43;5.00;99.90
5796;DHT22;2924;51.458;7.046;2023-04-09T01:25:12;5.00;99.90
5796;DHT22;2924;51.458;7.046;2023-04-09T01:27:52;5.00;99.90
5796;DHT22;2924;51.458;7.046;2023-04-09T01:30:19;4.90;99.90
5796;DHT22;2924;51.458;7.046;2023-04-09T01:32:46;4.90;99.90
5796;DHT22;2924;51.458;7.046;2023-04-09T01:35:11;4.80;99.90
5796;DHT22;2924;51.458;7.046;2023-04-09T01:37:38;4.80;99.90
5796;DHT22;2924;51.458;7.046;2023-04-09T01:40:06;4.80;99.90
5796;DHT22;2924;51.458;7.046;2023-04-09T01:42:32;4.80;99.90
5796;DHT22;2924;51.458;7.046;2023-04-09T01:44:58;4.80;99.90
5796;DHT22;2924;51.458;7.046;2023-04-09T01:47:25;4.70;99.90
5796;DHT22;2924;51.458;7.046;2023-04-09T01:49:51;4.70;99.90
5796;DHT22;2924;51.458;7.046;2023-04-09T01:52:17;4.70;99.90
5796;DHT22;2924;51.458;7.046;2023-04-09T01:54:43;4.70;99.90
5796;DHT22;2924;51.458;7.046;2023-04-09T01:57:08;4.70;99.90
5796;DHT22;2924;51.458;7.046;2023-04-09T01:59:34;4.50;99.90
5796;DHT22;2924;51.458;7.046;2023-04-09T02:02:05;4.50;99.90
5796;DHT22;2924;51.458;7.046;2023-04-09T02:04:37;4.50;99.90
5796;DHT22;2924;51.458;7.046;2023-04-09T02:07:29;4.50;99.90
5796;DHT22;2924;51.458;7.046;2023-04-09T02:09:58;4.50;99.90
5796;DHT22;2924;51.458;7.046;2023-04-09T02:12:25;4.50;99.90
5796;DHT22;2924;51.458;7.046;2023-04-09T02:14:51;4.40;99.90
5796;DHT22;2924;51.458;7.046;2023-04-09T02:17:18;4.40;99.90
5796;DHT22;2924;51.458;7.046;2023-04-09T02:19:45;4.40;99.90
5796;DHT22;2924;51.458;7.046;2023-04-09T02:22:12;4.30;99.90
5796;DHT22;2924;51.458;7.046;2023-04-09T02:24:38;4.30;99.90
5796;DHT22;2924;51.458;7.046;2023-04-09T02:27:05;4.20;99.90
5796;DHT22;2924;51.458;7.046;2023-04-09T02:29:31;4.20;99.90
5796;DHT22;2924;51.458;7.046;2023-04-09T02:31:57;4.10;99.90
5796;DHT22;2924;51.458;7.046;2023-04-09T02:34:23;4.10;99.90
5796;DHT22;2924;51.458;7.046;2023-04-09T02:36:48;4.10;99.90
5796;DHT22;2924;51.458;7.046;2023-04-09T02:39:14;4.00;99.90
5796;DHT22;2924;51.458;7.046;2023-04-09T02:41:39;3.90;99.90
5796;DHT22;2924;51.458;7.046;2023-04-09T02:44:05;3.90;99.90
5796;DHT22;2924;51.458;7.046;2023-04-09T02:46:30;4.00;99.90
5796;DHT22;2924;51.458;7.046;2023-04-09T02:48:56;4.00;99.90
5796;DHT22;2924;51.458;7.046;2023-04-09T02:51:21;4.00;99.90
5796;DHT22;2924;51.458;7.046;2023-04-09T02:53:47;3.90;99.90
5796;DHT22;2924;51.458;7.046;2023-04-09T02:56:13;3.90;99.90
5796;DHT22;2924;51.458;7.046;2023-04-09T02:58:38;3.90;99.90
5796;DHT22;2924;51.458;7.046;2023-04-09T03:01:04;3.80;99.90
5796;DHT22;2924;51.458;7.046;2023-04-09T03:03:29;3.80;99.90
5796;DHT22;2924;51.458;7.046;2023-04-09T03:05:55;3.70;99.90
5796;DHT22;2924;51.458;7.046;2023-04-09T03:08:21;3.70;99.90
5796;DHT22;2924;51.458;7.046;2023-04-09T03:10:46;3.70;99.90
5796;DHT22;2924;51.458;7.046;2023-04-09T03:13:12;3.70;99.90
5796;DHT22;2924;51.458;7.046;2023-04-09T03:15:38;3.70;99.90
5796;DHT22;2924;51.458;7.046;2023-04-09T03:18:03;3.70;99.90
5796;DHT22;2924;51.458;7.046;2023-04-09T03:20:29;3.70;99.90
5796;DHT22;2924;51.458;7.046;2023-04-09T03:22:54;3.70;99.90
5796;DHT22;2924;51.458;7.046;2023-04-09T03:25:20;3.70;99.90
5796;DHT22;2924;51.458;7.046;2023-04-09T03:27:45;3.70;99.90
5796;DHT22;2924;51.458;7.046;2023-04-09T03:30:11;3.70;99.90
5796;DHT22;2924;51.458;7.046;2023-04-09T03:32:37;3.60;99.90
5796;DHT22;2924;51.458;7.046;2023-04-09T03:35:02;3.50;99.90
5796;DHT22;2924;51.458;7.046;2023-04-09T03:37:28;3.50;99.90
5796;DHT22;2924;51.458;7.046;2023-04-09T03:39:53;3.50;99.90
5796;DHT22;2924;51.458;7.046;2023-04-09T03:42:19;3.40;99.90
5796;DHT22;2924;51.458;7.046;2023-04-09T03:44:45;3.40;99.90
5796;DHT22;2924;51.458;7.046;2023-04-09T03:47:10;3.50;99.90
5796;DHT22;2924;51.458;7.046;2023-04-09T03:49:36;3.40;99.90
5796;DHT22;2924;51.458;7.046;2023-04-09T03:52:02;3.40;99.90
5796;DHT22;2924;51.458;7.046;2023-04-09T03:54:30;3.30;99.90
5796;DHT22;2924;51.458;7.046;2023-04-09T03:56:56;3.30;99.90
5796;DHT22;2924;51.458;7.046;2023-04-09T03:59:22;3.20;99.90
5796;DHT22;2924;51.458;7.046;2023-04-09T04:01:48;3.10;99.90
5796;DHT22;2924;51.458;7.046;2023-04-09T04:04:13;3.00;99.90
5796;DHT22;2924;51.458;7.046;2023-04-09T04:06:39;2.90;99.90
5796;DHT22;2924;51.458;7.046;2023-04-09T04:09:05;2.80;99.90
5796;DHT22;2924;51.458;7.046;2023-04-09T04:11:30;2.70;99.90
5796;DHT22;2924;51.458;7.046;2023-04-09T04:13:56;2.70;99.90
5796;DHT22;2924;51.458;7.046;2023-04-09T04:16:22;2.70;99.90
5796;DHT22;2924;51.458;7.046;2023-04-09T04:18:47;2.60;99.90
5796;DHT22;2924;51.458;7.046;2023-04-09T04:21:13;2.60;99.90
5796;DHT22;2924;51.458;7.046;2023-04-09T04:23:39;2.40;99.90
5796;DHT22;2924;51.458;7.046;2023-04-09T04:26:11;2.30;99.90
5796;DHT22;2924;51.458;7.046;2023-04-09T04:28:37;2.10;99.90
5796;DHT22;2924;51.458;7.046;2023-04-09T04:31:07;2.10;99.90
5796;DHT22;2924;51.458;7.046;2023-04-09T04:33:34;2.10;99.90
5796;DHT22;2924;51.458;7.046;2023-04-09T04:36:10;2.00;99.90
5796;DHT22;2924;51.458;7.046;2023-04-09T04:38:36;1.80;99.90
5796;DHT22;2924;51.458;7.046;2023-04-09T04:41:03;1.70;99.90
5796;DHT22;2924;51.458;7.046;2023-04-09T04:43:29;1.70;99.90
5796;DHT22;2924;51.458;7.046;2023-04-09T04:45:55;1.70;99.90
5796;DHT22;2924;51.458;7.046;2023-04-09T04:48:20;1.70;99.90
5796;DHT22;2924;51.458;7.046;2023-04-09T04:50:53;1.70;99.90
5796;DHT22;2924;51.458;7.046;2023-04-09T04:53:18;1.70;99.90
5796;DHT22;2924;51.458;7.046;2023-04-09T04:55:44;1.70;99.90
5796;DHT22;2924;51.458;7.046;2023-04-09T04:58:09;1.70;99.90
5796;DHT22;2924;51.458;7.046;2023-04-09T05:00:35;1.80;99.90
5796;DHT22;2924;51.458;7.046;2023-04-09T05:03:01;1.80;99.90
5796;DHT22;2924;51.458;7.046;2023-04-09T05:05:26;1.90;99.90
5796;DHT22;2924;51.458;7.046;2023-04-09T05:07:52;1.90;99.90
5796;DHT22;2924;51.458;7.046;2023-04-09T05:10:17;1.90;99.90
5796;DHT22;2924;51.458;7.046;2023-04-09T05:12:43;1.90;99.90
5796;DHT22;2924;51.458;7.046;2023-04-09T05:15:08;1.90;99.90
5796;DHT22;2924;51.458;7.046;2023-04-09T05:17:34;1.90;99.90
5796;DHT22;2924;51.458;7.046;2023-04-09T05:19:59;1.80;99.90
5796;DHT22;2924;51.458;7.046;2023-04-09T05:22:25;1.90;99.90
5796;DHT22;2924;51.458;7.046;2023-04-09T05:24:51;1.90;99.90
5796;DHT22;2924;51.458;7.046;2023-04-09T05:27:17;1.90;99.90
5796;DHT22;2924;51.458;7.046;2023-04-09T05:29:43;1.90;99.90
5796;DHT22;2924;51.458;7.046;2023-04-09T05:32:09;1.80;99.90
5796;DHT22;2924;51.458;7.046;2023-04-09T05:34:35;1.90;99.90
5796;DHT22;2924;51.458;7.046;2023-04-09T05:37:02;2.00;99.90
5796;DHT22;2924;51.458;7.046;2023-04-09T05:39:27;2.10;99.90
5796;DHT22;2924;51.458;7.046;2023-04-09T05:41:53;2.20;99.90
5796;DHT22;2924;51.458;7.046;2023-04-09T05:44:18;2.30;99.90
5796;DHT22;2924;51.458;7.046;2023-04-09T05:46:44;2.30;99.90
5796;DHT22;2924;51.458;7.046;2023-04-09T05:49:10;2.30;99.90
5796;DHT22;2924;51.458;7.046;2023-04-09T05:51:35;2.30;99.90
5796;DHT22;2924;51.458;7.046;2023-04-09T05:54:01;2.30;99.90
5796;DHT22;2924;51.458;7.046;2023-04-09T05:56:27;2.40;99.90
5796;DHT22;2924;51.458;7.046;2023-04-09T05:58:53;2.50;99.90
5796;DHT22;2924;51.458;7.046;2023-04-09T06:01:18;2.60;99.90
5796;DHT22;2924;51.458;7.046;2023-04-09T06:03:44;2.60;99.90
5796;DHT22;2924;51.458;7.046;2023-04-09T06:06:10;2.60;99.90
5796;DHT22;2924;51.458;7.046;2023-04-09T06:08:35;2.70;99.90
5796;DHT22;2924;51.458;7.046;2023-04-09T06:11:01;2.80;99.90
5796;DHT22;2924;51.458;7.046;2023-04-09T06:13:27;3.00;99.90
5796;DHT22;2924;51.458;7.046;2023-04-09T06:15:53;3.10;99.90
5796;DHT22;2924;51.458;7.046;2023-04-09T06:18:19;3.10;99.90
5796;DHT22;2924;51.458;7.046;2023-04-09T06:20:44;3.20;99.90
5796;DHT22;2924;51.458;7.046;2023-04-09T06:23:10;3.30;99.90
5796;DHT22;2924;51.458;7.046;2023-04-09T06:25:35;3.50;99.90
5796;DHT22;2924;51.458;7.046;2023-04-09T06:28:01;3.80;99.90
5796;DHT22;2924;51.458;7.046;2023-04-09T06:30:27;4.00;99.90
5796;DHT22;2924;51.458;7.046;2023-04-09T06:32:53;4.40;99.90
5796;DHT22;2924;51.458;7.046;2023-04-09T06:35:19;4.80;99.90
5796;DHT22;2924;51.458;7.046;2023-04-09T06:37:45;5.20;99.90
5796;DHT22;2924;51.458;7.046;2023-04-09T06:40:11;5.60;99.90
5796;DHT22;2924;51.458;7.046;2023-04-09T06:42:36;6.20;99.90
5796;DHT22;2924;51.458;7.046;2023-04-09T06:45:03;6.30;99.90
5796;DHT22;2924;51.458;7.046;2023-04-09T06:47:34;6.60;99.90
5796;DHT22;2924;51.458;7.046;2023-04-09T06:50:00;6.80;99.90
5796;DHT22;2924;51.458;7.046;2023-04-09T06:52:26;7.20;99.90
5796;DHT22;2924;51.458;7.046;2023-04-09T06:54:51;7.60;99.90
5796;DHT22;2924;51.458;7.046;2023-04-09T06:57:17;7.70;99.90
5796;DHT22;2924;51.458;7.046;2023-04-09T06:59:42;7.90;99.90
5796;DHT22;2924;51.458;7.046;2023-04-09T07:02:08;8.30;99.90
5796;DHT22;2924;51.458;7.046;2023-04-09T07:04:34;8.50;99.90
5796;DHT22;2924;51.458;7.046;2023-04-09T07:07:00;8.80;99.90
5796;DHT22;2924;51.458;7.046;2023-04-09T07:09:25;9.20;99.90
5796;DHT22;2924;51.458;7.046;2023-04-09T07:11:51;9.20;99.90
5796;DHT22;2924;51.458;7.046;2023-04-09T07:14:17;9.40;99.90
5796;DHT22;2924;51.458;7.046;2023-04-09T07:16:42;9.70;99.90
5796;DHT22;2924;51.458;7.046;2023-04-09T07:19:10;9.90;99.90
5796;DHT22;2924;51.458;7.046;2023-04-09T07:21:36;10.20;99.90
5796;DHT22;2924;51.458;7.046;2023-04-09T07:24:02;10.80;99.90
5796;DHT22;2924;51.458;7.046;2023-04-09T07:26:28;11.20;99.90
5796;DHT22;2924;51.458;7.046;2023-04-09T07:28:54;11.20;99.90
5796;DHT22;2924;51.458;7.046;2023-04-09T07:31:20;11.30;99.90
5796;DHT22;2924;51.458;7.046;2023-04-09T07:33:46;11.40;99.90
5796;DHT22;2924;51.458;7.046;2023-04-09T07:36:11;11.80;99.90
5796;DHT22;2924;51.458;7.046;2023-04-09T07:38:37;12.00;99.90
5796;DHT22;2924;51.458;7.046;2023-04-09T07:41:02;11.80;99.90
5796;DHT22;2924;51.458;7.046;2023-04-09T07:43:28;11.50;99.90
5796;DHT22;2924;51.458;7.046;2023-04-09T07:45:53;11.30;99.90
5796;DHT22;2924;51.458;7.046;2023-04-09T07:48:19;11.50;99.90
5796;DHT22;2924;51.458;7.046;2023-04-09T07:50:44;11.80;99.90
5796;DHT22;2924;51.458;7.046;2023-04-09T07:53:10;11.80;99.90
5796;DHT22;2924;51.458;7.046;2023-04-09T07:55:36;12.20;99.90
5796;DHT22;2924;51.458;7.046;2023-04-09T07:58:02;12.40;99.90
5796;DHT22;2924;51.458;7.046;2023-04-09T08:00:29;12.50;99.90
5796;DHT22;2924;51.458;7.046;2023-04-09T08:02:54;12.70;99.90
5796;DHT22;2924;51.458;7.046;2023-04-09T08:05:21;13.00;99.90
5796;DHT22;2924;51.458;7.046;2023-04-09T08:07:49;13.20;99.90
5796;DHT22;2924;51.458;7.046;2023-04-09T08:10:14;13.50;99.90
5796;DHT22;2924;51.458;7.046;2023-04-09T08:12:40;14.00;99.90
5796;DHT22;2924;51.458;7.046;2023-04-09T08:15:06;14.30;99.90
5796;DHT22;2924;51.458;7.046;2023-04-09T08:17:32;14.50;99.90
5796;DHT22;2924;51.458;7.046;2023-04-09T08:19:57;15.20;99.90
5796;DHT22;2924;51.458;7.046;2023-04-09T08:22:23;15.20;99.90
5796;DHT22;2924;51.458;7.046;2023-04-09T08:24:52;15.70;99.90
5796;DHT22;2924;51.458;7.046;2023-04-09T08:27:18;15.60;99.90
5796;DHT22;2924;51.458;7.046;2023-04-09T08:29:44;14.90;99.90
5796;DHT22;2924;51.458;7.046;2023-04-09T08:32:09;14.80;99.90
5796;DHT22;2924;51.458;7.046;2023-04-09T08:34:35;14.80;99.90
5796;DHT22;2924;51.458;7.046;2023-04-09T08:37:01;15.30;99.90
5796;DHT22;2924;51.458;7.046;2023-04-09T08:39:27;15.60;99.90
5796;DHT22;2924;51.458;7.046;2023-04-09T08:41:56;15.60;99.90
5796;DHT22;2924;51.458;7.046;2023-04-09T08:44:25;15.30;99.90
5796;DHT22;2924;51.458;7.046;2023-04-09T08:46:51;16.30;99.90
5796;DHT22;2924;51.458;7.046;2023-04-09T08:49:17;16.80;99.70
5796;DHT22;2924;51.458;7.046;2023-04-09T08:51:45;17.10;98.30
5796;DHT22;2924;51.458;7.046;2023-04-09T08:54:14;17.30;98.40
5796;DHT22;2924;51.458;7.046;2023-04-09T08:56:41;17.40;97.20
5796;DHT22;2924;51.458;7.046;2023-04-09T08:59:08;16.90;96.90
5796;DHT22;2924;51.458;7.046;2023-04-09T09:01:34;17.00;96.80
5796;DHT22;2924;51.458;7.046;2023-04-09T09:04:01;17.10;96.20
5796;DHT22;2924;51.458;7.046;2023-04-09T09:06:30;17.30;95.30
5796;DHT22;2924;51.458;7.046;2023-04-09T09:09:12;16.90;93.70
5796;DHT22;2924;51.458;7.046;2023-04-09T09:11:42;16.70;94.00
5796;DHT22;2924;51.458;7.046;2023-04-09T09:14:10;17.10;93.60
5796;DHT22;2924;51.458;7.046;2023-04-09T09:16:39;17.20;93.60
5796;DHT22;2924;51.458;7.046;2023-04-09T09:19:08;17.50;93.30
5796;DHT22;2924;51.458;7.046;2023-04-09T09:21:34;17.10;92.90
5796;DHT22;2924;51.458;7.046;2023-04-09T09:24:01;16.70;94.30
5796;DHT22;2924;51.458;7.046;2023-04-09T09:26:27;16.10;93.40
5796;DHT22;2924;51.458;7.046;2023-04-09T09:28:54;16.20;94.20
5796;DHT22;2924;51.458;7.046;2023-04-09T09:31:21;17.00;93.50
5796;DHT22;2924;51.458;7.046;2023-04-09T09:33:47;17.10;92.10
5796;DHT22;2924;51.458;7.046;2023-04-09T09:36:14;16.90;91.90
5796;DHT22;2924;51.458;7.046;2023-04-09T09:38:57;17.30;92.30
5796;DHT22;2924;51.458;7.046;2023-04-09T09:41:23;17.50;92.90
5796;DHT22;2924;51.458;7.046;2023-04-09T09:43:50;17.80;91.30
5796;DHT22;2924;51.458;7.046;2023-04-09T09:46:16;17.90;92.10
5796;DHT22;2924;51.458;7.046;2023-04-09T09:48:43;18.20;91.40
5796;DHT22;2924;51.458;7.046;2023-04-09T09:51:11;17.80;91.20
5796;DHT22;2924;51.458;7.046;2023-04-09T09:53:42;16.70;91.80
5796;DHT22;2924;51.458;7.046;2023-04-09T09:56:14;16.10;92.20
5796;DHT22;2924;51.458;7.046;2023-04-09T10:01:37;16.00;92.10
5796;DHT22;2924;51.458;7.046;2023-04-09T10:04:05;15.80;92.80
5796;DHT22;2924;51.458;7.046;2023-04-09T10:06:32;16.40;92.30
5796;DHT22;2924;51.458;7.046;2023-04-09T10:09:02;16.30;91.60
5796;DHT22;2924;51.458;7.046;2023-04-09T10:11:30;16.10;92.90
5796;DHT22;2924;51.458;7.046;2023-04-09T10:13:56;16.30;93.20
5796;DHT22;2924;51.458;7.046;2023-04-09T10:16:24;16.30;92.60
5796;DHT22;2924;51.458;7.046;2023-04-09T10:18:50;16.10;93.00
5796;DHT22;2924;51.458;7.046;2023-04-09T10:21:45;16.30;92.70
5796;DHT22;2924;51.458;7.046;2023-04-09T10:24:12;16.30;92.90
5796;DHT22;2924;51.458;7.046;2023-04-09T10:26:42;16.60;92.50
5796;DHT22;2924;51.458;7.046;2023-04-09T10:29:11;16.60;91.90
5796;DHT22;2924;51.458;7.046;2023-04-09T10:34:17;15.90;92.30
5796;DHT22;2924;51.458;7.046;2023-04-09T10:36:45;16.50;91.70
5796;DHT22;2924;51.458;7.046;2023-04-09T10:39:13;17.20;91.10
5796;DHT22;2924;51.458;7.046;2023-04-09T10:41:40;17.30;91.60
5796;DHT22;2924;51.458;7.046;2023-04-09T10:44:27;17.00;91.00
5796;DHT22;2924;51.458;7.046;2023-04-09T10:46:55;16.30;91.80
5796;DHT22;2924;51.458;7.046;2023-04-09T10:49:23;16.30;91.90
5796;DHT22;2924;51.458;7.046;2023-04-09T10:59:59;16.50;91.10
5796;DHT22;2924;51.458;7.046;2023-04-09T11:02:47;15.70;91.50
5796;DHT22;2924;51.458;7.046;2023-04-09T11:05:31;16.50;91.80
5796;DHT22;2924;51.458;7.046;2023-04-09T11:10:28;17.40;90.70
5796;DHT22;2924;51.458;7.046;2023-04-09T11:12:54;17.40;90.50
5796;DHT22;2924;51.458;7.046;2023-04-09T11:15:19;17.50;90.80
5796;DHT22;2924;51.458;7.046;2023-04-09T11:17:48;17.60;90.50
5796;DHT22;2924;51.458;7.046;2023-04-09T11:20:16;17.40;90.20
5796;DHT22;2924;51.458;7.046;2023-04-09T11:22:43;17.70;90.60
5796;DHT22;2924;51.458;7.046;2023-04-09T11:25:09;18.30;90.30
5796;DHT22;2924;51.458;7.046;2023-04-09T11:27:43;18.50;89.80
5796;DHT22;2924;51.458;7.046;2023-04-09T11:30:09;18.10;89.70
5796;DHT22;2924;51.458;7.046;2023-04-09T11:32:34;17.60;90.30
5796;DHT22;2924;51.458;7.046;2023-04-09T11:35:00;17.60;90.10
5796;DHT22;2924;51.458;7.046;2023-04-09T11:37:26;17.50;90.30
5796;DHT22;2924;51.458;7.046;2023-04-09T11:39:52;18.00;89.80
5796;DHT22;2924;51.458;7.046;2023-04-09T11:42:19;18.30;90.30
5796;DHT22;2924;51.458;7.046;2023-04-09T11:44:47;18.90;88.40
5796;DHT22;2924;51.458;7.046;2023-04-09T11:47:14;19.00;89.20
5796;DHT22;2924;51.458;7.046;2023-04-09T11:49:41;19.10;89.30
5796;DHT22;2924;51.458;7.046;2023-04-09T11:52:07;18.70;89.30
5796;DHT22;2924;51.458;7.046;2023-04-09T11:54:33;18.50;88.90
5796;DHT22;2924;51.458;7.046;2023-04-09T11:56:59;18.30;88.10
5796;DHT22;2924;51.458;7.046;2023-04-09T11:59:26;17.90;88.20
5796;DHT22;2924;51.458;7.046;2023-04-09T12:01:52;17.50;89.90
5796;DHT22;2924;51.458;7.046;2023-04-09T12:04:20;17.20;90.80
5796;DHT22;2924;51.458;7.046;2023-04-09T12:06:46;17.30;90.30
5796;DHT22;2924;51.458;7.046;2023-04-09T12:09:12;16.90;90.60
5796;DHT22;2924;51.458;7.046;2023-04-09T12:11:42;16.70;90.90
5796;DHT22;2924;51.458;7.046;2023-04-09T12:14:12;17.00;91.20
5796;DHT22;2924;51.458;7.046;2023-04-09T12:16:37;17.40;90.80
5796;DHT22;2924;51.458;7.046;2023-04-09T12:19:06;17.90;90.60
5796;DHT22;2924;51.458;7.046;2023-04-09T12:21:52;18.00;90.00
5796;DHT22;2924;51.458;7.046;2023-04-09T12:24:22;16.80;90.20
5796;DHT22;2924;51.458;7.046;2023-04-09T12:26:49;16.00;91.10
5796;DHT22;2924;51.458;7.046;2023-04-09T12:29:15;15.80;91.60
5796;DHT22;2924;51.458;7.046;2023-04-09T12:31:42;15.40;91.40
5796;DHT22;2924;51.458;7.046;2023-04-09T12:34:08;15.20;92.10
5796;DHT22;2924;51.458;7.046;2023-04-09T12:36:33;14.70;92.30
5796;DHT22;2924;51.458;7.046;2023-04-09T12:38:59;14.70;93.00
5796;DHT22;2924;51.458;7.046;2023-04-09T12:41:25;15.00;92.20
5796;DHT22;2924;51.458;7.046;2023-04-09T12:43:51;15.00;92.40
5796;DHT22;2924;51.458;7.046;2023-04-09T12:46:17;14.80;92.40
5796;DHT22;2924;51.458;7.046;2023-04-09T12:48:43;15.20;92.30
5796;DHT22;2924;51.458;7.046;2023-04-09T12:51:10;15.60;92.40
5796;DHT22;2924;51.458;7.046;2023-04-09T12:53:36;15.70;91.40
5796;DHT22;2924;51.458;7.046;2023-04-09T12:56:01;15.60;91.50
5796;DHT22;2924;51.458;7.046;2023-04-09T12:58:27;15.40;91.60
5796;DHT22;2924;51.458;7.046;2023-04-09T13:00:53;15.60;91.70
5796;DHT22;2924;51.458;7.046;2023-04-09T13:03:21;15.80;91.80
5796;DHT22;2924;51.458;7.046;2023-04-09T13:05:47;16.40;91.30
5796;DHT22;2924;51.458;7.046;2023-04-09T13:08:13;16.60;90.80
5796;DHT22;2924;51.458;7.046;2023-04-09T13:10:39;17.00;91.10
5796;DHT22;2924;51.458;7.046;2023-04-09T13:13:04;17.40;90.00
5796;DHT22;2924;51.458;7.046;2023-04-09T13:15:33;17.40;90.30
5796;DHT22;2924;51.458;7.046;2023-04-09T13:17:58;17.90;90.00
5796;DHT22;2924;51.458;7.046;2023-04-09T13:20:24;18.30;88.50
5796;DHT22;2924;51.458;7.046;2023-04-09T13:22:50;17.40;89.20
5796;DHT22;2924;51.458;7.046;2023-04-09T13:25:16;16.50;90.30
5796;DHT22;2924;51.458;7.046;2023-04-09T13:27:42;16.10;91.00
5796;DHT22;2924;51.458;7.046;2023-04-09T13:30:08;16.10;90.90
5796;DHT22;2924;51.458;7.046;2023-04-09T13:32:34;15.60;91.20
5796;DHT22;2924;51.458;7.046;2023-04-09T13:34:59;15.30;91.50
5796;DHT22;2924;51.458;7.046;2023-04-09T13:37:25;14.80;92.00
5796;DHT22;2924;51.458;7.046;2023-04-09T13:39:50;14.80;92.20
5796;DHT22;2924;51.458;7.046;2023-04-09T13:42:16;15.20;91.90
5796;DHT22;2924;51.458;7.046;2023-04-09T13:44:42;15.90;91.70
5796;DHT22;2924;51.458;7.046;2023-04-09T13:47:10;16.90;90.70
5796;DHT22;2924;51.458;7.046;2023-04-09T13:49:37;17.40;90.10
5796;DHT22;2924;51.458;7.046;2023-04-09T13:52:04;17.60;90.60
5796;DHT22;2924;51.458;7.046;2023-04-09T13:54:30;18.00;89.30
5796;DHT22;2924;51.458;7.046;2023-04-09T13:56:55;18.10;88.50
5796;DHT22;2924;51.458;7.046;2023-04-09T13:59:21;18.20;88.80
5796;DHT22;2924;51.458;7.046;2023-04-09T14:01:47;18.10;88.60
5796;DHT22;2924;51.458;7.046;2023-04-09T14:04:13;17.70;89.00
5796;DHT22;2924;51.458;7.046;2023-04-09T14:06:39;17.10;90.10
5796;DHT22;2924;51.458;7.046;2023-04-09T14:09:06;16.80;90.20
5796;DHT22;2924;51.458;7.046;2023-04-09T14:11:32;16.90;90.40
5796;DHT22;2924;51.458;7.046;2023-04-09T14:13:57;17.20;90.20
5796;DHT22;2924;51.458;7.046;2023-04-09T14:16:23;17.30;90.50
5796;DHT22;2924;51.458;7.046;2023-04-09T14:18:49;17.50;90.30
5796;DHT22;2924;51.458;7.046;2023-04-09T14:21:14;17.40;90.20
5796;DHT22;2924;51.458;7.046;2023-04-09T14:23:40;17.20;90.00
5796;DHT22;2924;51.458;7.046;2023-04-09T14:26:06;16.80;90.30
5796;DHT22;2924;51.458;7.046;2023-04-09T14:28:31;16.50;90.50
5796;DHT22;2924;51.458;7.046;2023-04-09T14:30:58;16.00;90.80
5796;DHT22;2924;51.458;7.046;2023-04-09T14:33:24;15.60;91.10
5796;DHT22;2924;51.458;7.046;2023-04-09T14:35:50;15.30;92.00
5796;DHT22;2924;51.458;7.046;2023-04-09T14:38:16;15.60;91.70
5796;DHT22;2924;51.458;7.046;2023-04-09T14:40:42;15.60;91.60
5796;DHT22;2924;51.458;7.046;2023-04-09T14:43:08;15.60;91.30
5796;DHT22;2924;51.458;7.046;2023-04-09T14:45:34;15.60;91.50
5796;DHT22;2924;51.458;7.046;2023-04-09T14:48:00;15.50;91.70
5796;DHT22;2924;51.458;7.046;2023-04-09T14:50:26;15.30;92.20
5796;DHT22;2924;51.458;7.046;2023-04-09T14:52:51;15.50;91.30
5796;DHT22;2924;51.458;7.046;2023-04-09T14:55:17;15.60;92.10
5796;DHT22;2924;51.458;7.046;2023-04-09T14:57:43;15.90;91.50
5796;DHT22;2924;51.458;7.046;2023-04-09T15:00:10;16.00;91.30
5796;DHT22;2924;51.458;7.046;2023-04-09T15:02:36;16.00;91.50
5796;DHT22;2924;51.458;7.046;2023-04-09T15:05:05;16.10;90.80
5796;DHT22;2924;51.458;7.046;2023-04-09T15:07:31;16.20;90.70
5796;DHT22;2924;51.458;7.046;2023-04-09T15:09:57;16.00;91.40
5796;DHT22;2924;51.458;7.046;2023-04-09T15:12:30;15.90;91.20
5796;DHT22;2924;51.458;7.046;2023-04-09T15:14:55;15.70;91.70
5796;DHT22;2924;51.458;7.046;2023-04-09T15:17:22;15.50;91.70
5796;DHT22;2924;51.458;7.046;2023-04-09T15:19:47;15.20;92.10
5796;DHT22;2924;51.458;7.046;2023-04-09T15:22:13;15.10;92.20
5796;DHT22;2924;51.458;7.046;2023-04-09T15:24:39;15.10;92.20
5796;DHT22;2924;51.458;7.046;2023-04-09T15:27:05;15.20;91.80
5796;DHT22;2924;51.458;7.046;2023-04-09T15:29:31;15.20;91.90
5796;DHT22;2924;51.458;7.046;2023-04-09T15:31:57;15.20;91.90
5796;DHT22;2924;51.458;7.046;2023-04-09T15:34:22;15.00;92.00
5796;DHT22;2924;51.458;7.046;2023-04-09T15:36:50;14.70;92.40
5796;DHT22;2924;51.458;7.046;2023-04-09T15:39:16;14.50;92.60
5796;DHT22;2924;51.458;7.046;2023-04-09T15:41:42;14.50;92.90
5796;DHT22;2924;51.458;7.046;2023-04-09T15:44:07;14.50;92.60
5796;DHT22;2924;51.458;7.046;2023-04-09T15:46:33;14.40;92.60
5796;DHT22;2924;51.458;7.046;2023-04-09T15:48:58;14.40;92.90
5796;DHT22;2924;51.458;7.046;2023-04-09T15:51:24;14.50;93.40
5796;DHT22;2924;51.458;7.046;2023-04-09T15:53:51;14.70;93.10
5796;DHT22;2924;51.458;7.046;2023-04-09T15:56:17;14.60;92.80
5796;DHT22;2924;51.458;7.046;2023-04-09T15:58:44;14.50;92.40
5796;DHT22;2924;51.458;7.046;2023-04-09T16:01:10;14.30;92.90
5796;DHT22;2924;51.458;7.046;2023-04-09T16:03:37;14.20;92.90
5796;DHT22;2924;51.458;7.046;2023-04-09T16:06:07;14.10;93.00
5796;DHT22;2924;51.458;7.046;2023-04-09T16:08:34;14.10;92.90
5796;DHT22;2924;51.458;7.046;2023-04-09T16:11:01;14.10;93.30
5796;DHT22;2924;51.458;7.046;2023-04-09T16:13:26;14.20;93.30
5796;DHT22;2924;51.458;7.046;2023-04-09T16:15:52;14.30;93.40
5796;DHT22;2924;51.458;7.046;2023-04-09T16:18:17;15.00;92.70
5796;DHT22;2924;51.458;7.046;2023-04-09T16:20:43;15.80;91.70
5796;DHT22;2924;51.458;7.046;2023-04-09T16:23:09;16.60;91.50
5796;DHT22;2924;51.458;7.046;2023-04-09T16:25:35;17.20;90.40
5796;DHT22;2924;51.458;7.046;2023-04-09T16:28:00;17.60;90.00